createdAt,value
2022-08-17T00:00:43.547Z,19.42
2022-08-17T00:01:20.081Z,19.36
2022-08-17T00:01:55.953Z,19.43
2022-08-17T00:02:28.081Z,19.15
2022-08-17T00:03:01.084Z,19.17
2022-08-17T00:03:36.096Z,19.29
2022-08-17T00:04:11.866Z,19.42
2022-08-17T00:04:47.068Z,19.43
2022-08-17T00:05:22.074Z,19.35
2022-08-17T00:05:55.461Z,19.41
2022-08-17T00:06:28.142Z,19.39
2022-08-17T00:06:59.729Z,19.27
2022-08-17T00:07:31.221Z,19.26
2022-08-17T00:08:02.711Z,19.27
2022-08-17T00:08:35.636Z,19.29
2022-08-17T00:09:07.140Z,19.36
2022-08-17T00:09:38.599Z,19.28
2022-08-17T00:10:10.167Z,19.29
2022-08-17T00:10:42.509Z,19.37
2022-08-17T00:11:25.469Z,19.46
2022-08-17T00:12:43.431Z,19.62
2022-08-17T00:12:48.846Z,19.67
2022-08-17T00:13:25.729Z,19.71
2022-08-17T00:13:58.709Z,19.71
2022-08-17T00:14:30.154Z,19.69
2022-08-17T00:15:01.600Z,19.71
2022-08-17T00:15:33.030Z,19.75
2022-08-17T00:16:06.708Z,19.77
2022-08-17T00:16:55.430Z,19.77
2022-08-17T00:17:29.194Z,19.77
2022-08-17T00:18:00.851Z,19.78
2022-08-17T00:19:01.382Z,19.84
2022-08-17T00:19:25.329Z,19.88
2022-08-17T00:19:56.894Z,19.90
2022-08-17T00:20:33.609Z,19.93
2022-08-17T00:21:10.203Z,19.95
2022-08-17T00:22:29.379Z,19.95
2022-08-17T00:22:36.667Z,20.00
2022-08-17T00:23:09.678Z,20.02
2022-08-17T00:23:47.831Z,20.04
2022-08-17T00:24:20.815Z,20.06
2022-08-17T00:24:52.421Z,20.09
2022-08-17T00:25:23.864Z,20.05
2022-08-17T00:25:55.315Z,20.05
2022-08-17T00:26:44.025Z,19.95
2022-08-17T00:27:17.244Z,19.74
2022-08-17T00:27:48.732Z,19.78
2022-08-17T00:28:20.962Z,19.83
2022-08-17T00:28:52.539Z,19.70
2022-08-17T00:29:23.997Z,19.79
2022-08-17T00:29:55.599Z,19.94
2022-08-17T00:30:27.101Z,19.93
2022-08-17T00:30:59.318Z,19.86
2022-08-17T00:31:30.776Z,19.92
2022-08-17T00:33:13.673Z,20.00
2022-08-17T00:33:16.083Z,19.94
2022-08-17T00:33:46.546Z,20.02
2022-08-17T00:34:18.041Z,19.98
2022-08-17T00:34:49.571Z,19.98
2022-08-17T00:35:23.332Z,19.98
2022-08-17T00:35:55.164Z,19.99
2022-08-17T00:36:26.921Z,19.96
2022-08-17T00:36:58.544Z,19.87
2022-08-17T00:37:29.967Z,19.83
2022-08-17T00:38:01.418Z,19.82
2022-08-17T00:38:33.187Z,19.85
2022-08-17T00:39:04.845Z,19.93
2022-08-17T00:39:36.373Z,19.86
2022-08-17T00:40:10.477Z,19.93
2022-08-17T00:40:46.277Z,19.92
2022-08-17T00:41:23.924Z,19.95
2022-08-17T00:41:55.421Z,20.02
2022-08-17T00:42:31.316Z,20.01
2022-08-17T00:43:16.246Z,20.00
2022-08-17T00:43:48.859Z,20.04
2022-08-17T00:44:20.461Z,20.03
2022-08-17T00:44:51.909Z,20.04
2022-08-17T00:45:23.421Z,20.06
2022-08-17T00:45:55.629Z,20.02
2022-08-17T00:46:28.971Z,20.00
2022-08-17T00:47:00.388Z,20.00
2022-08-17T00:47:31.929Z,20.00
2022-08-17T00:48:03.533Z,20.00
2022-08-17T00:48:42.946Z,19.94
2022-08-17T00:49:15.130Z,19.98
2022-08-17T00:49:46.566Z,20.03
2022-08-17T00:50:18.733Z,19.99
2022-08-17T00:50:57.635Z,20.01
2022-08-17T00:51:33.587Z,20.04
2022-08-17T00:52:10.788Z,20.06
2022-08-17T00:52:45.795Z,20.05
2022-08-17T00:53:17.278Z,20.04
2022-08-17T00:53:54.246Z,20.08
2022-08-17T00:54:27.588Z,20.04
2022-08-17T00:54:59.077Z,20.04
2022-08-17T00:55:30.807Z,20.02
2022-08-17T00:56:03.313Z,20.04
2022-08-17T00:56:36.571Z,20.02
2022-08-17T00:57:18.928Z,20.01
2022-08-17T00:57:55.063Z,20.02
2022-08-17T00:58:34.992Z,19.98
2022-08-17T00:59:07.897Z,19.98
2022-08-17T00:59:40.465Z,19.99
2022-08-17T01:00:21.306Z,19.94
2022-08-17T01:00:53.012Z,19.86
2022-08-17T01:01:24.591Z,19.84
2022-08-17T01:01:56.052Z,19.86
2022-08-17T01:02:27.621Z,19.80
2022-08-17T01:02:59.790Z,19.81
2022-08-17T01:03:31.513Z,19.76
2022-08-17T01:04:03.286Z,19.78
2022-08-17T01:04:34.747Z,19.78
2022-08-17T01:05:06.908Z,19.77
2022-08-17T01:05:42.166Z,19.82
2022-08-17T01:06:14.061Z,19.79
2022-08-17T01:06:46.990Z,19.80
2022-08-17T01:07:19.125Z,19.74
2022-08-17T01:07:51.673Z,19.77
2022-08-17T01:08:24.682Z,19.80
2022-08-17T01:08:57.517Z,19.82
2022-08-17T01:09:29.481Z,19.82
2022-08-17T01:10:00.893Z,19.74
2022-08-17T01:10:59.139Z,19.77
2022-08-17T01:11:36.203Z,19.75
2022-08-17T01:12:08.471Z,19.80
2022-08-17T01:12:40.247Z,19.79
2022-08-17T01:13:12.023Z,19.79
2022-08-17T01:13:44.312Z,19.73
2022-08-17T01:14:15.898Z,19.74
2022-08-17T01:14:47.357Z,19.66
2022-08-17T01:15:18.836Z,19.55
2022-08-17T01:15:55.960Z,19.53
2022-08-17T01:16:30.610Z,19.59
2022-08-17T01:17:02.282Z,19.60
2022-08-17T01:17:33.855Z,19.61
2022-08-17T01:18:05.865Z,19.68
2022-08-17T01:18:37.324Z,19.72
2022-08-17T01:19:16.224Z,19.78
2022-08-17T01:19:47.812Z,19.84
2022-08-17T01:20:19.282Z,19.84
2022-08-17T01:20:51.649Z,19.85
2022-08-17T01:21:32.596Z,19.86
2022-08-17T01:22:06.964Z,19.91
2022-08-17T01:22:38.396Z,19.93
2022-08-17T01:23:09.838Z,19.93
2022-08-17T01:23:48.036Z,19.91
2022-08-17T01:24:19.626Z,19.92
2022-08-17T01:24:53.533Z,19.90
2022-08-17T01:25:24.973Z,19.90
2022-08-17T01:25:57.234Z,19.88
2022-08-17T01:26:29.050Z,19.88
2022-08-17T01:27:00.754Z,19.91
2022-08-17T01:27:32.565Z,19.94
2022-08-17T01:28:04.903Z,19.94
2022-08-17T01:28:55.110Z,19.93
2022-08-17T01:29:27.121Z,19.92
2022-08-17T01:29:59.288Z,19.92
2022-08-17T01:30:58.856Z,19.92
2022-08-17T01:31:24.229Z,19.92
2022-08-17T01:31:57.066Z,19.92
2022-08-17T01:32:30.318Z,19.90
2022-08-17T01:33:01.810Z,19.91
2022-08-17T01:33:33.385Z,19.92
2022-08-17T01:34:06.990Z,19.92
2022-08-17T01:34:43.809Z,19.91
2022-08-17T01:35:21.800Z,19.86
2022-08-17T01:35:53.222Z,19.72
2022-08-17T01:36:27.687Z,19.82
2022-08-17T01:36:59.339Z,19.83
2022-08-17T01:37:35.796Z,19.81
2022-08-17T01:38:07.493Z,19.84
2022-08-17T01:38:39.384Z,19.87
2022-08-17T01:39:12.473Z,19.84
2022-08-17T01:39:52.048Z,19.84
2022-08-17T01:40:23.759Z,19.84
2022-08-17T01:40:58.051Z,19.84
2022-08-17T01:41:29.480Z,19.84
2022-08-17T01:42:04.960Z,19.82
2022-08-17T01:42:37.950Z,19.81
2022-08-17T01:43:35.821Z,19.80
2022-08-17T01:44:08.059Z,19.77
2022-08-17T01:44:39.584Z,19.77
2022-08-17T01:45:16.780Z,19.75
2022-08-17T01:45:49.751Z,19.74
2022-08-17T01:46:36.073Z,19.76
2022-08-17T01:47:07.553Z,19.74
2022-08-17T01:47:39.004Z,19.73
2022-08-17T01:48:12.633Z,19.73
2022-08-17T01:48:47.666Z,19.71
2022-08-17T01:49:19.581Z,19.69
2022-08-17T01:49:51.036Z,19.69
2022-08-17T01:50:27.295Z,19.67
2022-08-17T01:50:59.215Z,19.65
2022-08-17T01:51:32.806Z,19.66
2022-08-17T01:52:08.232Z,19.69
2022-08-17T01:52:39.692Z,19.67
2022-08-17T01:53:12.142Z,19.65
2022-08-17T01:53:45.489Z,19.62
2022-08-17T01:54:17.532Z,19.60
2022-08-17T01:54:49.285Z,19.59
2022-08-17T01:55:27.093Z,19.55
2022-08-17T01:56:00.659Z,19.58
2022-08-17T01:56:32.990Z,19.42
2022-08-17T01:57:04.563Z,19.42
2022-08-17T01:57:36.338Z,19.43
2022-08-17T01:58:09.745Z,19.47
2022-08-17T01:58:41.512Z,19.51
2022-08-17T01:59:14.068Z,19.50
2022-08-17T01:59:47.179Z,19.44
2022-08-17T02:00:18.903Z,19.45
2022-08-17T02:01:00.044Z,19.39
2022-08-17T02:01:34.580Z,19.37
2022-08-17T02:02:07.298Z,19.27
2022-08-17T02:02:39.247Z,19.29
2022-08-17T02:03:10.688Z,19.28
2022-08-17T02:03:42.316Z,19.27
2022-08-17T02:04:31.977Z,19.11
2022-08-17T02:05:04.029Z,19.14
2022-08-17T02:05:35.559Z,19.18
2022-08-17T02:06:26.934Z,19.09
2022-08-17T02:06:58.872Z,19.07
2022-08-17T02:07:31.743Z,19.10
2022-08-17T02:08:20.382Z,19.19
2022-08-17T02:09:02.270Z,18.97
2022-08-17T02:09:34.778Z,18.99
2022-08-17T02:10:16.670Z,18.98
2022-08-17T02:10:51.968Z,19.00
2022-08-17T02:11:24.175Z,18.99
2022-08-17T02:11:56.230Z,19.01
2022-08-17T02:12:37.596Z,18.97
2022-08-17T02:13:11.100Z,18.94
2022-08-17T02:13:43.151Z,18.92
2022-08-17T02:14:14.585Z,18.93
2022-08-17T02:14:46.326Z,18.92
2022-08-17T02:15:17.866Z,18.94
2022-08-17T02:15:49.293Z,18.93
2022-08-17T02:16:20.845Z,18.95
2022-08-17T02:16:52.321Z,18.90
2022-08-17T02:17:23.760Z,18.93
2022-08-17T02:17:55.190Z,18.78
2022-08-17T02:18:26.920Z,18.83
2022-08-17T02:18:58.380Z,18.81
2022-08-17T02:19:31.052Z,18.81
2022-08-17T02:20:03.186Z,18.85
2022-08-17T02:20:41.636Z,18.87
2022-08-17T02:21:14.380Z,18.86
2022-08-17T02:21:46.564Z,18.84
2022-08-17T02:22:18.290Z,18.86
2022-08-17T02:22:50.289Z,18.81
2022-08-17T02:23:22.354Z,18.67
2022-08-17T02:23:53.846Z,18.68
2022-08-17T02:24:58.600Z,18.69
2022-08-17T02:25:22.854Z,18.73
2022-08-17T02:25:56.086Z,18.70
2022-08-17T02:26:27.527Z,18.73
2022-08-17T02:26:58.980Z,18.66
2022-08-17T02:27:30.409Z,18.59
2022-08-17T02:28:02.279Z,18.49
2022-08-17T02:28:33.869Z,18.46
2022-08-17T02:29:05.362Z,18.50
2022-08-17T02:29:37.250Z,18.52
2022-08-17T02:30:59.330Z,18.49
2022-08-17T02:31:08.156Z,18.49
2022-08-17T02:31:39.574Z,18.52
2022-08-17T02:32:25.424Z,18.57
2022-08-17T02:33:00.007Z,18.57
2022-08-17T02:33:43.067Z,18.60
2022-08-17T02:34:15.218Z,18.52
2022-08-17T02:34:47.337Z,18.40
2022-08-17T02:35:19.415Z,18.36
2022-08-17T02:35:53.828Z,18.33
2022-08-17T02:36:27.443Z,18.34
2022-08-17T02:36:59.123Z,18.27
2022-08-17T02:37:30.949Z,18.28
2022-08-17T02:38:02.626Z,18.27
2022-08-17T02:38:34.077Z,18.37
2022-08-17T02:39:06.362Z,18.38
2022-08-17T02:39:38.759Z,18.44
2022-08-17T02:40:10.581Z,18.53
2022-08-17T02:40:42.180Z,18.45
2022-08-17T02:41:16.648Z,18.66
2022-08-17T02:41:48.836Z,18.42
2022-08-17T02:42:22.482Z,18.54
2022-08-17T02:42:54.022Z,18.73
2022-08-17T02:43:27.113Z,18.78
2022-08-17T02:43:58.747Z,18.88
2022-08-17T02:44:39.713Z,18.74
2022-08-17T02:45:17.942Z,18.83
2022-08-17T02:45:49.480Z,18.86
2022-08-17T02:46:22.530Z,18.88
2022-08-17T02:46:53.985Z,18.89
2022-08-17T02:47:25.398Z,18.91
2022-08-17T02:47:57.051Z,18.94
2022-08-17T02:48:31.667Z,18.93
2022-08-17T02:49:04.074Z,18.91
2022-08-17T02:49:35.570Z,18.93
2022-08-17T02:50:07.578Z,18.87
2022-08-17T02:50:39.787Z,18.88
2022-08-17T02:51:11.294Z,18.82
2022-08-17T02:51:42.761Z,18.67
2022-08-17T02:52:14.422Z,18.65
2022-08-17T02:52:57.253Z,18.64
2022-08-17T02:53:35.897Z,18.43
2022-08-17T02:54:39.983Z,18.43
2022-08-17T02:54:59.293Z,18.50
2022-08-17T02:55:32.665Z,18.50
2022-08-17T02:56:04.375Z,18.49
2022-08-17T02:56:35.821Z,18.40
2022-08-17T02:57:07.288Z,18.41
2022-08-17T02:57:38.766Z,18.44
2022-08-17T02:58:10.577Z,18.41
2022-08-17T02:58:42.053Z,18.32
2022-08-17T02:59:13.480Z,18.20
2022-08-17T02:59:48.916Z,18.23
2022-08-17T03:00:33.927Z,18.32
2022-08-17T03:01:05.713Z,18.34
2022-08-17T03:01:37.163Z,18.37
2022-08-17T03:02:09.876Z,18.40
2022-08-17T03:02:42.032Z,18.36
2022-08-17T03:03:18.653Z,18.36
2022-08-17T03:03:50.120Z,18.33
2022-08-17T03:04:21.664Z,18.34
2022-08-17T03:04:53.133Z,18.39
2022-08-17T03:05:25.817Z,18.34
2022-08-17T03:05:57.438Z,18.38
2022-08-17T03:06:29.192Z,18.31
2022-08-17T03:07:00.660Z,18.16
2022-08-17T03:07:32.363Z,18.15
2022-08-17T03:08:04.201Z,18.15
2022-08-17T03:08:37.402Z,18.12
2022-08-17T03:09:08.881Z,17.99
2022-08-17T03:09:40.288Z,17.92
2022-08-17T03:10:12.234Z,18.03
2022-08-17T03:10:43.940Z,18.06
2022-08-17T03:11:16.227Z,18.06
2022-08-17T03:11:47.651Z,17.89
2022-08-17T03:12:24.495Z,17.97
2022-08-17T03:12:56.025Z,17.93
2022-08-17T03:13:27.582Z,18.01
2022-08-17T03:13:59.265Z,18.09
2022-08-17T03:14:32.209Z,18.14
2022-08-17T03:15:04.637Z,18.25
2022-08-17T03:15:36.101Z,18.21
2022-08-17T03:16:12.060Z,18.22
2022-08-17T03:16:43.705Z,18.16
2022-08-17T03:17:17.327Z,18.22
2022-08-17T03:17:49.009Z,18.33
2022-08-17T03:18:24.498Z,18.44
2022-08-17T03:18:57.863Z,18.22
2022-08-17T03:19:29.319Z,18.25
2022-08-17T03:20:00.792Z,18.29
2022-08-17T03:20:32.763Z,18.42
2022-08-17T03:21:04.529Z,18.51
2022-08-17T03:21:36.256Z,18.65
2022-08-17T03:22:19.825Z,18.68
2022-08-17T03:23:01.784Z,18.75
2022-08-17T03:23:40.832Z,18.79
2022-08-17T03:24:13.171Z,18.81
2022-08-17T03:24:49.504Z,18.89
2022-08-17T03:25:22.747Z,18.92
2022-08-17T03:25:54.342Z,18.94
2022-08-17T03:26:25.890Z,18.95
2022-08-17T03:27:01.288Z,18.92
2022-08-17T03:27:32.803Z,18.97
2022-08-17T03:28:04.862Z,18.94
2022-08-17T03:28:37.286Z,18.97
2022-08-17T03:29:08.711Z,18.77
2022-08-17T03:29:41.458Z,18.86
2022-08-17T03:30:15.833Z,18.77
2022-08-17T03:30:47.352Z,18.76
2022-08-17T03:31:18.882Z,18.84
2022-08-17T03:31:50.323Z,18.79
2022-08-17T03:32:21.788Z,18.72
2022-08-17T03:32:54.842Z,18.78
2022-08-17T03:33:26.312Z,18.81
2022-08-17T03:33:57.740Z,18.73
2022-08-17T03:34:30.310Z,18.80
2022-08-17T03:35:01.749Z,18.95
2022-08-17T03:35:34.089Z,19.06
2022-08-17T03:36:05.800Z,19.06
2022-08-17T03:36:37.253Z,19.04
2022-08-17T03:37:08.985Z,19.10
2022-08-17T03:37:40.402Z,19.11
2022-08-17T03:38:12.214Z,19.18
2022-08-17T03:38:43.825Z,19.23
2022-08-17T03:39:16.577Z,19.27
2022-08-17T03:39:48.089Z,19.27
2022-08-17T03:40:34.602Z,19.29
2022-08-17T03:41:13.649Z,19.33
2022-08-17T03:41:45.195Z,19.19
2022-08-17T03:42:32.168Z,19.27
2022-08-17T03:43:09.003Z,19.28
2022-08-17T03:43:40.468Z,19.17
2022-08-17T03:44:11.984Z,19.25
2022-08-17T03:44:43.402Z,19.25
2022-08-17T03:45:16.044Z,19.28
2022-08-17T03:46:06.342Z,19.31
2022-08-17T03:47:16.255Z,19.35
2022-08-17T03:48:06.538Z,19.29
2022-08-17T03:48:56.676Z,19.20
2022-08-17T03:49:46.507Z,19.23
2022-08-17T03:50:38.658Z,19.28
2022-08-17T03:51:28.991Z,19.26
2022-08-17T03:52:23.647Z,19.20
2022-08-17T03:53:13.503Z,19.12
2022-08-17T03:54:05.067Z,19.04
2022-08-17T03:54:58.123Z,19.05
2022-08-17T03:55:48.192Z,19.04
2022-08-17T03:56:38.489Z,19.11
2022-08-17T03:57:10.700Z,19.25
2022-08-17T03:57:42.402Z,19.23
2022-08-17T03:58:13.839Z,19.27
2022-08-17T03:58:45.437Z,19.29
2022-08-17T03:59:20.805Z,19.27
2022-08-17T03:59:53.611Z,19.26
2022-08-17T04:00:25.108Z,19.30
2022-08-17T04:00:56.553Z,19.30
2022-08-17T04:01:28.049Z,19.33
2022-08-17T04:02:01.686Z,19.37
2022-08-17T04:02:33.523Z,19.44
2022-08-17T04:03:04.950Z,19.43
2022-08-17T04:03:37.352Z,19.47
2022-08-17T04:04:08.967Z,19.49
2022-08-17T04:04:40.402Z,19.51
2022-08-17T04:05:12.027Z,19.50
2022-08-17T04:05:43.601Z,19.52
2022-08-17T04:06:15.320Z,19.54
2022-08-17T04:06:46.869Z,19.53
2022-08-17T04:07:22.399Z,19.54
2022-08-17T04:07:53.813Z,19.58
2022-08-17T04:08:25.231Z,19.59
2022-08-17T04:08:56.656Z,19.61
2022-08-17T04:09:28.164Z,19.60
2022-08-17T04:09:59.773Z,19.61
2022-08-17T04:10:31.223Z,19.62
2022-08-17T04:11:05.564Z,19.64
2022-08-17T04:11:37.508Z,19.64
2022-08-17T04:12:09.191Z,19.64
2022-08-17T04:12:45.166Z,19.65
2022-08-17T04:13:16.681Z,19.65
2022-08-17T04:13:56.799Z,19.65
2022-08-17T04:14:31.114Z,19.65
2022-08-17T04:15:02.817Z,19.66
2022-08-17T04:15:34.331Z,19.67
2022-08-17T04:16:05.868Z,19.66
2022-08-17T04:16:37.342Z,19.59
2022-08-17T04:17:08.791Z,19.62
2022-08-17T04:17:40.441Z,19.67
2022-08-17T04:18:11.917Z,19.70
2022-08-17T04:18:43.484Z,19.70
2022-08-17T04:19:15.262Z,19.70
2022-08-17T04:19:46.872Z,19.74
2022-08-17T04:20:19.213Z,19.74
2022-08-17T04:20:50.639Z,19.72
2022-08-17T04:21:22.177Z,19.73
2022-08-17T04:21:53.621Z,19.73
2022-08-17T04:22:30.601Z,19.74
2022-08-17T04:23:09.639Z,19.73
2022-08-17T04:23:41.347Z,19.72
2022-08-17T04:24:12.870Z,19.73
2022-08-17T04:24:44.296Z,19.71
2022-08-17T04:25:16.882Z,19.70
2022-08-17T04:25:49.667Z,19.71
2022-08-17T04:26:53.283Z,19.72
2022-08-17T04:27:14.308Z,19.72
2022-08-17T04:27:45.770Z,19.72
2022-08-17T04:28:17.712Z,19.71
2022-08-17T04:28:49.184Z,19.72
2022-08-17T04:29:21.744Z,19.72
2022-08-17T04:29:55.550Z,19.71
2022-08-17T04:30:28.510Z,19.71
2022-08-17T04:30:59.931Z,19.72
2022-08-17T04:31:31.465Z,19.70
2022-08-17T04:32:03.432Z,19.70
2022-08-17T04:33:04.698Z,19.69
2022-08-17T04:33:38.857Z,19.68
2022-08-17T04:34:11.834Z,19.68
2022-08-17T04:34:43.871Z,19.67
2022-08-17T04:35:18.939Z,19.67
2022-08-17T04:35:51.609Z,19.66
2022-08-17T04:36:23.125Z,19.64
2022-08-17T04:36:54.549Z,19.64
2022-08-17T04:37:26.026Z,19.64
2022-08-17T04:37:57.584Z,19.64
2022-08-17T04:38:30.249Z,19.65
2022-08-17T04:39:01.756Z,19.67
2022-08-17T04:39:33.960Z,19.67
2022-08-17T04:40:27.425Z,19.66
2022-08-17T04:41:17.729Z,19.67
2022-08-17T04:42:07.484Z,19.66
2022-08-17T04:42:38.930Z,19.68
2022-08-17T04:43:12.041Z,19.70
2022-08-17T04:43:44.149Z,19.71
2022-08-17T04:44:37.217Z,19.71
2022-08-17T04:45:07.922Z,19.72
2022-08-17T04:45:55.204Z,19.73
2022-08-17T04:46:29.636Z,19.74
2022-08-17T04:47:01.067Z,19.71
2022-08-17T04:47:32.848Z,19.71
2022-08-17T04:48:04.316Z,19.72
2022-08-17T04:48:42.728Z,19.73
2022-08-17T04:49:14.240Z,19.74
2022-08-17T04:49:45.681Z,19.75
2022-08-17T04:50:21.188Z,19.75
2022-08-17T04:50:52.681Z,19.74
2022-08-17T04:51:25.664Z,19.75
2022-08-17T04:51:59.075Z,19.74
2022-08-17T04:52:44.429Z,19.73
2022-08-17T04:53:18.490Z,19.73
2022-08-17T04:53:54.887Z,19.75
2022-08-17T04:54:26.610Z,19.73
2022-08-17T04:54:58.097Z,19.72
2022-08-17T04:55:29.624Z,19.73
2022-08-17T04:56:01.202Z,19.74
2022-08-17T04:56:32.984Z,19.73
2022-08-17T04:57:04.566Z,19.72
2022-08-17T04:57:39.348Z,19.72
2022-08-17T04:58:13.282Z,19.73
2022-08-17T04:58:45.305Z,19.73
2022-08-17T04:59:18.018Z,19.75
2022-08-17T04:59:49.679Z,19.75
2022-08-17T05:00:21.351Z,19.77
2022-08-17T05:00:52.877Z,19.77
2022-08-17T05:01:25.211Z,19.77
2022-08-17T05:01:56.735Z,19.72
2022-08-17T05:02:28.175Z,19.74
2022-08-17T05:02:59.626Z,19.75
2022-08-17T05:03:31.270Z,19.76
2022-08-17T05:04:33.421Z,19.78
2022-08-17T05:04:56.174Z,19.82
2022-08-17T05:05:29.501Z,19.77
2022-08-17T05:06:02.640Z,19.80
2022-08-17T05:06:34.182Z,19.78
2022-08-17T05:07:05.724Z,19.83
2022-08-17T05:07:37.178Z,19.84
2022-08-17T05:08:08.726Z,19.85
2022-08-17T05:08:40.185Z,19.85
2022-08-17T05:09:12.011Z,19.84
2022-08-17T05:09:43.525Z,19.86
2022-08-17T05:10:14.994Z,19.87
2022-08-17T05:10:46.905Z,19.89
2022-08-17T05:11:18.409Z,19.89
2022-08-17T05:11:49.972Z,19.85
2022-08-17T05:12:21.413Z,19.85
2022-08-17T05:12:57.859Z,19.90
2022-08-17T05:13:32.415Z,19.90
2022-08-17T05:14:04.055Z,19.87
2022-08-17T05:14:35.522Z,19.84
2022-08-17T05:15:10.536Z,19.91
2022-08-17T05:15:44.926Z,19.96
2022-08-17T05:16:16.978Z,19.99
2022-08-17T05:16:49.341Z,20.02
2022-08-17T05:17:20.775Z,20.03
2022-08-17T05:17:52.192Z,20.03
2022-08-17T05:18:24.676Z,20.03
2022-08-17T05:18:56.364Z,20.01
2022-08-17T05:19:27.821Z,20.00
2022-08-17T05:19:59.254Z,20.04
2022-08-17T05:20:31.694Z,20.05
2022-08-17T05:21:03.165Z,20.08
2022-08-17T05:21:34.705Z,20.10
2022-08-17T05:22:06.251Z,20.11
2022-08-17T05:22:46.329Z,20.14
2022-08-17T05:23:18.601Z,20.12
2022-08-17T05:23:53.955Z,20.12
2022-08-17T05:24:39.173Z,20.10
2022-08-17T05:25:15.254Z,20.15
2022-08-17T05:25:48.757Z,20.15
2022-08-17T05:26:26.723Z,20.16
2022-08-17T05:27:03.851Z,20.17
2022-08-17T05:27:38.168Z,20.21
2022-08-17T05:28:12.465Z,20.24
2022-08-17T05:28:44.036Z,20.31
2022-08-17T05:29:18.820Z,20.31
2022-08-17T05:29:50.265Z,20.35
2022-08-17T05:30:22.013Z,20.41
2022-08-17T05:30:54.513Z,20.40
2022-08-17T05:31:25.991Z,20.42
2022-08-17T05:31:57.548Z,20.48
2022-08-17T05:32:38.457Z,20.48
2022-08-17T05:33:16.753Z,20.52
2022-08-17T05:33:49.501Z,20.57
2022-08-17T05:34:21.255Z,20.60
2022-08-17T05:34:52.740Z,20.57
2022-08-17T05:35:26.045Z,20.55
2022-08-17T05:35:58.015Z,20.56
2022-08-17T05:36:41.591Z,20.52
2022-08-17T05:37:15.201Z,20.55
2022-08-17T05:37:46.667Z,20.56
2022-08-17T05:38:21.841Z,20.56
2022-08-17T05:38:53.293Z,20.58
2022-08-17T05:39:24.817Z,20.65
2022-08-17T05:39:56.520Z,20.69
2022-08-17T05:40:28.265Z,20.73
2022-08-17T05:41:05.931Z,20.85
2022-08-17T05:41:37.359Z,20.82
2022-08-17T05:42:08.820Z,20.83
2022-08-17T05:42:40.450Z,20.87
2022-08-17T05:43:13.572Z,20.98
2022-08-17T05:43:45.069Z,21.08
2022-08-17T05:44:17.003Z,21.13
2022-08-17T05:44:48.476Z,21.19
2022-08-17T05:45:54.545Z,21.21
2022-08-17T05:46:16.603Z,21.12
2022-08-17T05:46:48.960Z,21.22
2022-08-17T05:47:20.802Z,21.22
2022-08-17T05:47:52.233Z,21.27
2022-08-17T05:48:39.413Z,21.39
2022-08-17T05:49:11.663Z,21.55
2022-08-17T05:49:43.084Z,21.56
2022-08-17T05:50:26.074Z,21.69
2022-08-17T05:50:58.722Z,21.77
2022-08-17T05:51:48.981Z,21.87
2022-08-17T05:52:23.932Z,22.00
2022-08-17T05:52:58.366Z,22.06
2022-08-17T05:53:41.779Z,22.22
2022-08-17T05:54:32.946Z,22.61
2022-08-17T05:55:04.485Z,22.55
2022-08-17T05:55:42.493Z,22.69
2022-08-17T05:56:29.367Z,22.57
2022-08-17T05:57:08.525Z,22.96
2022-08-17T05:57:47.502Z,23.07
2022-08-17T05:58:26.314Z,23.10
2022-08-17T05:59:02.909Z,23.03
2022-08-17T05:59:40.460Z,23.08
2022-08-17T06:00:16.996Z,23.32
2022-08-17T06:00:56.620Z,23.34
2022-08-17T06:01:43.333Z,23.40
2022-08-17T06:02:17.447Z,23.78
2022-08-17T06:02:54.822Z,23.99
2022-08-17T06:03:29.582Z,23.84
2022-08-17T06:04:14.508Z,23.69
2022-08-17T06:04:45.946Z,24.05
2022-08-17T06:05:17.366Z,24.01
2022-08-17T06:05:49.348Z,24.12
2022-08-17T06:06:20.922Z,23.99
2022-08-17T06:07:15.569Z,23.88
2022-08-17T06:07:53.074Z,23.41
2022-08-17T06:08:35.972Z,23.02
2022-08-17T06:09:20.033Z,23.01
2022-08-17T06:10:11.698Z,22.75
2022-08-17T06:10:43.133Z,22.56
2022-08-17T06:11:27.236Z,22.41
2022-08-17T06:12:00.139Z,22.27
2022-08-17T06:12:50.270Z,22.13
2022-08-17T06:13:25.057Z,22.09
2022-08-17T06:14:11.595Z,22.10
2022-08-17T06:15:01.455Z,22.20
2022-08-17T06:15:33.244Z,22.24
2022-08-17T06:16:33.891Z,22.28
2022-08-17T06:17:05.144Z,22.36
2022-08-17T06:17:36.698Z,22.33
2022-08-17T06:18:08.763Z,22.40
2022-08-17T06:18:53.515Z,22.44
2022-08-17T06:19:24.919Z,22.48
2022-08-17T06:19:58.416Z,22.43
2022-08-17T06:20:30.622Z,22.45
2022-08-17T06:21:03.292Z,22.51
2022-08-17T06:21:35.648Z,22.51
2022-08-17T06:22:07.452Z,22.51
2022-08-17T06:22:46.244Z,22.47
2022-08-17T06:23:22.959Z,22.63
2022-08-17T06:23:56.987Z,22.63
2022-08-17T06:24:47.264Z,22.72
2022-08-17T06:25:22.126Z,22.81
2022-08-17T06:25:55.760Z,22.97
2022-08-17T06:26:38.426Z,23.11
2022-08-17T06:27:18.292Z,23.21
2022-08-17T06:27:53.677Z,23.31
2022-08-17T06:28:27.749Z,23.35
2022-08-17T06:29:00.491Z,23.51
2022-08-17T06:29:42.380Z,23.52
2022-08-17T06:30:13.829Z,23.41
2022-08-17T06:30:59.174Z,23.50
2022-08-17T06:31:33.126Z,23.52
2022-08-17T06:32:05.150Z,23.48
2022-08-17T06:32:38.284Z,23.40
2022-08-17T06:33:12.439Z,23.37
2022-08-17T06:33:46.356Z,23.28
2022-08-17T06:34:21.188Z,23.36
2022-08-17T06:34:52.862Z,23.32
2022-08-17T06:35:35.175Z,23.39
2022-08-17T06:36:21.391Z,23.35
2022-08-17T06:37:01.936Z,23.23
2022-08-17T06:37:41.164Z,23.26
2022-08-17T06:38:37.046Z,23.22
2022-08-17T06:39:28.606Z,23.28
2022-08-17T06:40:12.298Z,23.31
2022-08-17T06:40:45.599Z,23.34
2022-08-17T06:41:23.062Z,23.43
2022-08-17T06:42:01.278Z,23.31
2022-08-17T06:42:59.985Z,23.40
2022-08-17T06:43:51.037Z,23.53
2022-08-17T06:44:50.912Z,23.65
2022-08-17T06:45:36.059Z,23.54
2022-08-17T06:46:13.709Z,23.61
2022-08-17T06:47:06.045Z,23.71
2022-08-17T06:47:41.713Z,23.49
2022-08-17T06:48:15.673Z,23.41
2022-08-17T06:48:50.056Z,23.26
2022-08-17T06:49:25.888Z,23.52
2022-08-17T06:50:23.343Z,23.42
2022-08-17T06:50:57.411Z,23.47
2022-08-17T06:51:36.155Z,23.46
2022-08-17T06:52:45.355Z,23.28
2022-08-17T06:53:18.067Z,23.44
2022-08-17T06:54:12.622Z,23.35
2022-08-17T06:54:54.698Z,23.25
2022-08-17T06:55:34.445Z,23.15
2022-08-17T06:56:09.792Z,23.04
2022-08-17T06:56:54.144Z,22.98
2022-08-17T06:57:28.544Z,22.93
2022-08-17T06:58:05.864Z,22.90
2022-08-17T06:58:48.391Z,22.93
2022-08-17T06:59:21.747Z,22.99
2022-08-17T06:59:56.961Z,22.88
2022-08-17T07:00:29.870Z,22.92
2022-08-17T07:01:06.184Z,22.93
2022-08-17T07:01:38.985Z,22.91
2022-08-17T07:02:10.487Z,22.74
2022-08-17T07:02:52.065Z,22.78
2022-08-17T07:03:41.464Z,22.87
2022-08-17T07:04:13.056Z,22.79
2022-08-17T07:04:44.537Z,22.85
2022-08-17T07:05:16.836Z,22.90
2022-08-17T07:05:49.578Z,22.86
2022-08-17T07:06:22.432Z,22.95
2022-08-17T07:07:22.394Z,22.89
2022-08-17T07:08:01.769Z,23.15
2022-08-17T07:08:37.902Z,23.27
2022-08-17T07:09:28.165Z,23.39
2022-08-17T07:10:03.170Z,23.41
2022-08-17T07:10:36.399Z,23.39
2022-08-17T07:11:09.926Z,23.45
2022-08-17T07:11:44.240Z,23.42
2022-08-17T07:12:16.441Z,23.53
2022-08-17T07:12:48.312Z,23.65
2022-08-17T07:13:22.011Z,23.76
2022-08-17T07:13:53.413Z,23.81
2022-08-17T07:14:33.504Z,23.60
2022-08-17T07:15:10.323Z,23.79
2022-08-17T07:15:44.812Z,23.59
2022-08-17T07:16:23.442Z,23.40
2022-08-17T07:16:56.261Z,23.50
2022-08-17T07:17:46.856Z,23.54
2022-08-17T07:18:19.141Z,23.56
2022-08-17T07:18:50.990Z,23.24
2022-08-17T07:19:23.092Z,23.36
2022-08-17T07:19:56.869Z,23.34
2022-08-17T07:20:28.554Z,23.43
2022-08-17T07:21:03.905Z,23.46
2022-08-17T07:21:44.923Z,23.44
2022-08-17T07:22:19.136Z,23.33
2022-08-17T07:23:07.322Z,23.17
2022-08-17T07:23:50.132Z,23.27
2022-08-17T07:24:33.160Z,23.20
2022-08-17T07:25:05.958Z,23.28
2022-08-17T07:25:38.545Z,23.27
2022-08-17T07:26:10.108Z,23.33
2022-08-17T07:26:41.549Z,23.11
2022-08-17T07:27:23.491Z,23.27
2022-08-17T07:27:55.949Z,23.28
2022-08-17T07:28:27.828Z,23.26
2022-08-17T07:28:59.637Z,23.26
2022-08-17T07:29:33.102Z,23.18
2022-08-17T07:30:10.932Z,23.08
2022-08-17T07:30:47.630Z,22.91
2022-08-17T07:31:19.217Z,22.69
2022-08-17T07:31:51.104Z,22.82
2022-08-17T07:32:28.033Z,22.89
2022-08-17T07:33:03.883Z,22.87
2022-08-17T07:33:36.828Z,22.89
2022-08-17T07:34:11.072Z,22.90